Time;durP1;ratioP1;P1;durP2;ratioP2;P2;SDS_P1;SDS_P2;PMS_P1;PMS_P2;Temp;Humidity;BMP_temperature;BMP_pressure;BME280_temperature;BME280_humidity;BME280_pressure;Samples;Min_cycle;Max_cycle;Signal;HPM_P1;HPM_P2
2021/11/07 00:01:14;;;;;;;26.65;18.92;;;;;;;4.49;100.00;100039.94;1669755;83;21550;-65
2021/11/07 00:03:41;;;;;;;27.07;18.17;;;;;;;4.33;100.00;100035.95;1672768;82;20955;-65
2021/11/07 00:06:24;;;;;;;29.60;17.73;;;;;;;4.23;100.00;100039.95;1682961;82;21635;-65
2021/11/07 00:08:58;;;;;;;24.92;17.77;;;;;;;4.19;100.00;100047.20;1672452;83;21053;-66
2021/11/07 00:11:25;;;;;;;23.42;16.32;;;;;;;4.15;100.00;100043.14;1698682;83;21518;-66
2021/11/07 00:13:53;;;;;;;28.47;17.73;;;;;;;4.13;100.00;100044.39;1707988;81;21538;-65
2021/11/07 00:16:32;;;;;;;25.15;17.35;;;;;;;4.10;100.00;100048.20;1709897;82;21498;-65
2021/11/07 00:19:08;;;;;;;24.12;15.78;;;;;;;4.05;100.00;100036.30;1702535;82;21488;-65
2021/11/07 00:24:19;;;;;;;33.08;18.77;;;;;;;3.99;100.00;100025.66;1644064;84;21001;-64
2021/11/07 00:26:51;;;;;;;26.25;17.77;;;;;;;3.97;100.00;100019.91;1704600;81;20962;-64
2021/11/07 00:29:19;;;;;;;27.05;18.55;;;;;;;3.91;100.00;100023.20;1688720;81;20940;-65
2021/11/07 00:31:53;;;;;;;26.35;17.07;;;;;;;3.88;100.00;100019.18;1753043;81;21006;-65
2021/11/07 00:35:03;;;;;;;23.90;16.45;;;;;;;3.85;100.00;100011.67;1737348;81;21929;-65
2021/11/07 00:37:19;;;;;;;22.48;16.25;;;;;;;3.85;100.00;100017.77;1714632;81;21101;-66
2021/11/07 00:42:20;;;;;;;26.80;15.32;;;;;;;3.82;100.00;100008.95;1682613;83;21544;-66
2021/11/07 00:44:57;;;;;;;23.85;15.72;;;;;;;3.80;100.00;100008.91;1716225;82;21473;-66
2021/11/07 00:47:50;;;;;;;20.00;14.47;;;;;;;3.79;100.00;100008.02;1746422;79;21922;-66
2021/11/07 00:49:58;;;;;;;17.10;13.40;;;;;;;3.78;100.00;99998.41;1677315;84;21000;-66
2021/11/07 00:52:37;;;;;;;18.80;14.70;;;;;;;3.78;100.00;99992.27;1690887;81;20964;-66
2021/11/07 00:55:12;;;;;;;21.10;14.00;;;;;;;3.75;100.00;99990.86;1697435;83;20955;-66
2021/11/07 01:00:15;;;;;;;20.88;14.13;;;;;;;3.69;100.00;99976.30;1728738;81;21087;-72
2021/11/07 01:02:40;;;;;;;21.30;14.07;;;;;;;3.66;100.00;99977.50;1664986;84;20917;-67
2021/11/07 01:05:19;;;;;;;21.77;14.75;;;;;;;3.65;100.00;99974.00;1756283;80;21465;-67
2021/11/07 01:07:47;;;;;;;19.57;12.53;;;;;;;3.61;100.00;99979.95;1727097;82;21114;-67
2021/11/07 01:10:15;;;;;;;19.27;12.60;;;;;;;3.57;100.00;99978.06;1736473;81;21546;-66
2021/11/07 01:12:45;;;;;;;21.97;13.40;;;;;;;3.56;100.00;99975.41;1700899;81;21885;-67
2021/11/07 01:15:13;;;;;;;21.30;13.22;;;;;;;3.56;100.00;99978.91;1741695;81;21467;-67
2021/11/07 01:17:42;;;;;;;22.15;13.48;;;;;;;3.54;100.00;99984.91;1742859;81;21636;-67
2021/11/07 01:20:12;;;;;;;19.45;12.93;;;;;;;3.44;100.00;99982.39;1732426;81;21507;-66
2021/11/07 01:25:15;;;;;;;22.80;15.15;;;;;;;3.35;100.00;99969.91;1706956;82;21525;-66
2021/11/07 01:27:45;;;;;;;23.73;15.58;;;;;;;3.32;100.00;99967.20;1720448;81;21556;-67
2021/11/07 01:30:20;;;;;;;20.97;16.02;;;;;;;3.30;100.00;99973.16;1738048;81;21998;-66
2021/11/07 01:32:53;;;;;;;24.92;16.32;;;;;;;3.27;100.00;99979.15;1758978;80;21471;-66
2021/11/07 01:35:28;;;;;;;27.95;16.67;;;;;;;3.23;100.00;99973.77;1754723;80;21022;-66
2021/11/07 01:38:11;;;;;;;25.82;17.05;;;;;;;3.17;100.00;99960.09;1769196;79;21431;-66
2021/11/07 01:40:34;;;;;;;30.32;18.05;;;;;;;3.08;100.00;99970.19;1715132;80;21815;-65
2021/11/07 01:43:01;;;;;;;23.52;17.65;;;;;;;3.03;100.00;99966.11;1721271;81;21004;-66
2021/11/07 01:45:36;;;;;;;29.15;17.62;;;;;;;2.99;100.00;99964.23;1727039;80;21434;-66
2021/11/07 01:48:13;;;;;;;26.37;17.52;;;;;;;2.93;100.00;99964.42;1739138;79;21497;-67
2021/11/07 01:50:42;;;;;;;23.18;16.65;;;;;;;2.84;100.00;99963.24;1719192;79;21107;-66
2021/11/07 01:53:22;;;;;;;25.97;16.77;;;;;;;2.77;100.00;99961.63;1750968;80;20843;-66
2021/11/07 01:55:46;;;;;;;28.05;17.48;;;;;;;2.73;100.00;99964.94;1747560;80;21749;-66
2021/11/07 01:58:14;;;;;;;25.65;17.35;;;;;;;2.71;100.00;99957.06;1739200;81;21405;-67
2021/11/07 02:00:43;;;;;;;26.73;18.23;;;;;;;2.68;100.00;99956.06;1726955;81;21605;-66
2021/11/07 02:03:14;;;;;;;24.85;16.93;;;;;;;2.65;100.00;99959.44;1715893;80;21447;-66
2021/11/07 02:05:42;;;;;;;30.62;18.20;;;;;;;2.64;100.00;99960.27;1709111;82;20868;-67
2021/11/07 02:08:11;;;;;;;30.52;18.90;;;;;;;2.63;100.00;99962.81;1710108;82;21675;-68
2021/11/07 02:10:39;;;;;;;25.72;17.23;;;;;;;2.61;100.00;99954.95;1728721;81;21545;-70
2021/11/07 02:13:08;;;;;;;24.18;16.80;;;;;;;2.56;100.00;99951.28;1753209;80;21457;-70
2021/11/07 02:15:37;;;;;;;25.65;16.30;;;;;;;2.50;100.00;99953.65;1718945;81;21945;-67
2021/11/07 02:18:05;;;;;;;25.60;17.98;;;;;;;2.47;100.00;99958.73;1696739;83;21498;-68
2021/11/07 02:20:39;;;;;;;28.77;17.48;;;;;;;2.45;100.00;99970.81;1682115;83;20962;-69
2021/11/07 02:23:11;;;;;;;25.45;17.20;;;;;;;2.44;100.00;99966.43;1702033;83;21121;-70
2021/11/07 02:25:41;;;;;;;23.38;16.02;;;;;;;2.41;100.00;99954.18;1680550;84;20991;-67
2021/11/07 02:28:10;;;;;;;25.12;18.10;;;;;;;2.39;100.00;99957.14;1725625;81;21498;-67
2021/11/07 02:30:40;;;;;;;24.30;17.17;;;;;;;2.37;100.00;99957.49;1720005;81;21520;-69
2021/11/07 02:33:09;;;;;;;22.95;15.85;;;;;;;2.30;100.00;99961.06;1720417;81;21439;-70
2021/11/07 02:35:38;;;;;;;28.17;16.95;;;;;;;2.24;100.00;99959.11;1739483;81;21422;-70
2021/11/07 02:38:06;;;;;;;26.17;17.75;;;;;;;2.19;100.00;99959.34;1753249;80;21034;-69
2021/11/07 02:40:35;;;;;;;23.83;16.25;;;;;;;2.15;100.00;99950.94;1734880;79;21161;-69
2021/11/07 02:43:03;;;;;;;23.00;15.88;;;;;;;2.13;100.00;99949.58;1734733;80;20948;-69
2021/11/07 02:45:32;;;;;;;25.08;16.90;;;;;;;2.13;100.00;99953.48;1738886;80;21058;-69
2021/11/07 02:48:01;;;;;;;20.55;15.35;;;;;;;2.11;100.00;99953.83;1719313;81;20941;-69
2021/11/07 02:50:30;;;;;;;20.05;14.05;;;;;;;2.09;100.00;99954.18;1731272;80;21446;-70
2021/11/07 02:52:58;;;;;;;19.60;14.07;;;;;;;2.11;100.00;99947.73;1743736;80;21042;-67
2021/11/07 02:55:27;;;;;;;20.65;13.00;;;;;;;2.12;100.00;99941.70;1740745;80;21059;-66
2021/11/07 02:57:58;;;;;;;19.05;13.03;;;;;;;2.15;100.00;99942.71;1752263;80;21027;-67
2021/11/07 03:00:27;;;;;;;24.57;15.98;;;;;;;2.18;100.00;99945.85;1723535;81;21003;-66
2021/11/07 03:02:56;;;;;;;22.37;15.98;;;;;;;2.20;100.00;99938.58;1710892;81;21006;-67
2021/11/07 03:05:26;;;;;;;22.48;15.55;;;;;;;2.19;100.00;99935.91;1712321;81;21522;-69
2021/11/07 03:07:55;;;;;;;25.15;15.83;;;;;;;2.22;100.00;99929.52;1715942;81;21508;-69
2021/11/07 03:10:29;;;;;;;22.42;16.02;;;;;;;2.24;100.00;99931.77;1718933;81;22451;-70
2021/11/07 03:13:11;;;;;;;24.45;15.75;;;;;;;2.24;100.00;99936.09;1718449;81;21489;-69
2021/11/07 03:15:40;;;;;;;25.92;15.75;;;;;;;2.23;100.00;99946.92;1700571;82;20880;-70
2021/11/07 03:18:10;;;;;;;22.95;16.40;;;;;;;2.20;100.00;99950.29;1690957;82;21522;-69
2021/11/07 03:20:40;;;;;;;23.62;16.20;;;;;;;2.10;100.00;99956.37;1692188;82;21523;-69
2021/11/07 03:23:09;;;;;;;24.70;17.00;;;;;;;2.01;100.00;99958.19;1693680;82;21661;-69
2021/11/07 03:25:55;;;;;;;27.95;17.92;;;;;;;1.95;100.00;99954.03;1700543;82;21535;-69
2021/11/07 03:28:20;;;;;;;30.08;18.10;;;;;;;1.87;100.00;99951.50;1711034;82;20904;-69
2021/11/07 03:31:00;;;;;;;25.72;17.95;;;;;;;1.79;100.00;99945.98;1702152;83;21425;-69
2021/11/07 03:33:28;;;;;;;27.70;17.60;;;;;;;1.73;100.00;99941.83;1700715;83;21522;-68
2021/11/07 03:35:56;;;;;;;23.80;17.10;;;;;;;1.66;100.00;99945.41;1699449;83;21412;-69
2021/11/07 03:38:25;;;;;;;26.60;18.17;;;;;;;1.57;100.00;99936.82;1690683;82;21454;-69
2021/11/07 03:40:54;;;;;;;24.82;17.57;;;;;;;1.49;100.00;99927.40;1696202;83;21054;-70
2021/11/07 03:43:28;;;;;;;29.98;19.07;;;;;;;1.38;100.00;99923.42;1710356;83;21409;-69
2021/11/07 03:46:00;;;;;;;27.35;17.12;;;;;;;1.30;100.00;99920.02;1713417;82;20943;-69
2021/11/07 03:48:30;;;;;;;28.05;18.27;;;;;;;1.21;100.00;99914.02;1681490;82;21116;-69
2021/11/07 03:51:01;;;;;;;29.18;18.40;;;;;;;1.12;100.00;99909.73;1731761;81;21569;-69
2021/11/07 03:53:30;;;;;;;30.05;18.48;;;;;;;1.03;100.00;99905.44;1707727;81;21055;-69
2021/11/07 03:56:00;;;;;;;29.90;19.77;;;;;;;1.00;100.00;99904.00;1690786;80;21785;-70
2021/11/07 03:58:28;;;;;;;29.82;18.92;;;;;;;0.97;100.00;99900.86;1670934;83;21132;-70
2021/11/07 04:00:58;;;;;;;30.00;18.80;;;;;;;0.99;100.00;99897.03;1700879;83;21412;-69
2021/11/07 04:03:26;;;;;;;34.48;19.85;;;;;;;1.02;100.00;99892.86;1693394;81;21741;-70
2021/11/07 04:05:55;;;;;;;30.35;21.10;;;;;;;1.06;100.00;99892.17;1680035;81;21070;-69
2021/11/07 04:08:24;;;;;;;33.73;21.50;;;;;;;1.11;100.00;99889.35;1755112;80;21773;-69
2021/11/07 04:10:54;;;;;;;29.90;19.10;;;;;;;1.16;100.00;99893.04;1739575;80;21422;-69
2021/11/07 04:13:25;;;;;;;30.30;16.87;;;;;;;1.20;100.00;99894.05;1715045;81;20961;-69
2021/11/07 04:15:53;;;;;;;23.83;17.37;;;;;;;1.24;100.00;99890.35;1720141;81;20950;-69
2021/11/07 04:18:23;;;;;;;25.72;17.35;;;;;;;1.29;100.00;99892.25;1714353;82;21450;-69
2021/11/07 04:20:53;;;;;;;22.93;15.25;;;;;;;1.30;100.00;99883.64;1699537;81;21506;-69
2021/11/07 04:23:22;;;;;;;24.77;16.12;;;;;;;1.33;100.00;99878.16;1677603;84;20979;-70
2021/11/07 04:25:51;;;;;;;23.87;15.63;;;;;;;1.38;100.00;99877.05;1663954;83;20979;-69
2021/11/07 04:28:21;;;;;;;24.37;15.78;;;;;;;1.41;100.00;99881.08;1661250;83;21570;-66
2021/11/07 04:30:51;;;;;;;21.80;14.40;;;;;;;1.46;100.00;99875.27;1740682;79;21436;-64
2021/11/07 04:33:20;;;;;;;26.02;17.32;;;;;;;1.53;100.00;99881.20;1721045;81;21446;-63
2021/11/07 04:35:49;;;;;;;22.93;16.67;;;;;;;1.57;100.00;99892.20;1730847;80;21136;-65
2021/11/07 04:38:17;;;;;;;22.58;16.55;;;;;;;1.59;100.00;99889.66;1733368;80;21031;-65
2021/11/07 04:40:47;;;;;;;23.87;16.50;;;;;;;1.57;100.00;99904.31;1727730;81;21499;-67
2021/11/07 04:43:17;;;;;;;26.42;17.27;;;;;;;1.50;100.00;99896.67;1743396;80;21407;-68
2021/11/07 04:45:46;;;;;;;28.05;18.00;;;;;;;1.41;100.00;99889.77;1733803;81;21121;-68
2021/11/07 04:48:14;;;;;;;26.27;17.75;;;;;;;1.20;100.00;99892.75;1736582;81;20935;-65
2021/11/07 04:50:42;;;;;;;28.73;17.73;;;;;;;1.02;100.00;99882.88;1728645;79;21497;-65
2021/11/07 04:53:12;;;;;;;31.90;19.20;;;;;;;0.92;100.00;99874.65;1744120;78;21112;-65
2021/11/07 04:55:43;;;;;;;33.58;19.17;;;;;;;0.85;100.00;99874.32;1738000;80;21525;-66
2021/11/07 04:58:12;;;;;;;30.55;20.17;;;;;;;0.82;100.00;99881.98;1749949;79;21752;-67
2021/11/07 05:00:41;;;;;;;32.23;19.98;;;;;;;0.82;100.00;99875.48;1766212;79;20987;-66
2021/11/07 05:03:10;;;;;;;34.75;19.73;;;;;;;0.81;100.00;99873.30;1761950;78;21090;-69
2021/11/07 05:05:38;;;;;;;26.65;18.48;;;;;;;0.82;100.00;99868.98;1722981;81;21042;-68
2021/11/07 05:08:07;;;;;;;28.47;17.57;;;;;;;0.83;100.00;99859.97;1734742;79;21152;-68
2021/11/07 05:10:36;;;;;;;23.00;15.30;;;;;;;0.88;100.00;99857.56;1727859;82;21096;-68
2021/11/07 05:13:04;;;;;;;19.42;13.62;;;;;;;0.94;100.00;99853.94;1723445;82;20940;-65
2021/11/07 05:15:33;;;;;;;21.10;14.18;;;;;;;0.99;100.00;99858.06;1719719;81;21564;-68
2021/11/07 05:18:02;;;;;;;22.10;15.95;;;;;;;1.03;100.00;99855.66;1665188;83;21515;-66
2021/11/07 05:20:31;;;;;;;23.65;16.52;;;;;;;1.08;100.00;99864.54;1670291;83;21024;-68
2021/11/07 05:22:59;;;;;;;22.93;15.43;;;;;;;1.13;100.00;99869.52;1654429;84;21123;-65
2021/11/07 05:37:07;;;;;;;24.67;14.45;;;;;;;1.50;100.00;99900.58;1761368;80;23332;-63
2021/11/07 05:39:36;;;;;;;23.67;14.83;;;;;;;1.57;100.00;99903.02;1745421;81;21565;-61
2021/11/07 05:42:05;;;;;;;18.30;12.90;;;;;;;1.68;100.00;99892.64;1752676;81;21521;-65
2021/11/07 05:44:34;;;;;;;18.35;12.78;;;;;;;1.77;100.00;99886.52;1790301;79;20887;-64
2021/11/07 05:47:03;;;;;;;17.90;12.85;;;;;;;1.89;100.00;99877.01;1758585;81;21527;-65
2021/11/07 05:49:32;;;;;;;20.20;12.60;;;;;;;2.02;100.00;99875.81;1763531;80;21461;-65
2021/11/07 05:52:00;;;;;;;19.17;12.93;;;;;;;2.18;100.00;99879.48;1769695;80;20888;-66
2021/11/07 05:54:28;;;;;;;20.02;12.85;;;;;;;2.33;100.00;99885.27;1791189;79;22049;-66
2021/11/07 05:56:57;;;;;;;23.65;13.60;;;;;;;2.45;100.00;99883.16;1791052;80;20929;-65
2021/11/07 05:59:24;;;;;;;21.40;13.88;;;;;;;2.56;100.00;99881.38;1777194;79;20952;-64
2021/11/07 06:01:54;;;;;;;23.05;15.05;;;;;;;2.64;100.00;99883.43;1771280;80;21071;-61
2021/11/07 06:04:22;;;;;;;31.55;15.78;;;;;;;2.66;100.00;99876.97;1759952;80;20827;-63
2021/11/07 06:06:52;;;;;;;24.12;16.73;;;;;;;2.52;100.00;99887.77;1750238;80;21987;-62
2021/11/07 06:09:20;;;;;;;24.05;17.07;;;;;;;2.37;100.00;99897.61;1756841;80;20864;-63
2021/11/07 06:11:49;;;;;;;24.35;16.90;;;;;;;2.32;100.00;99902.13;1772166;80;20900;-62
2021/11/07 06:14:18;;;;;;;25.25;16.95;;;;;;;2.25;100.00;99904.91;1788632;79;20951;-62
2021/11/07 06:16:51;;;;;;;26.27;16.50;;;;;;;2.24;100.00;99908.77;1739094;80;21010;-62
2021/11/07 06:19:18;;;;;;;29.00;16.73;;;;;;;2.27;100.00;99896.75;1778534;80;21497;-63
2021/11/07 06:21:50;;;;;;;28.45;17.07;;;;;;;2.28;100.00;99890.72;1780515;80;21490;-62
2021/11/07 06:24:24;;;;;;;27.13;17.80;;;;;;;2.32;100.00;99890.00;1752031;81;20935;-64
2021/11/07 06:26:49;;;;;;;28.70;17.50;;;;;;;2.34;100.00;99894.86;1750078;81;21035;-63
2021/11/07 06:29:18;;;;;;;25.77;16.90;;;;;;;2.39;100.00;99893.34;1757927;81;20970;-63
2021/11/07 06:31:49;;;;;;;29.80;17.82;;;;;;;2.45;100.00;99881.86;1749414;81;21628;-62
2021/11/07 06:34:18;;;;;;;23.25;15.72;;;;;;;2.53;100.00;99879.13;1757301;81;21539;-63
2021/11/07 06:36:46;;;;;;;20.97;14.18;;;;;;;2.65;100.00;99888.22;1744656;81;21453;-62
2021/11/07 06:39:17;;;;;;;46.58;16.55;;;;;;;2.76;100.00;99879.08;1718625;82;21495;-63
2021/11/07 06:41:46;;;;;;;31.80;15.50;;;;;;;2.88;100.00;99872.16;1718761;82;22745;-62
2021/11/07 06:44:16;;;;;;;25.57;15.20;;;;;;;2.98;100.00;99876.45;1750022;80;21131;-62
2021/11/07 06:46:45;;;;;;;21.77;14.65;;;;;;;3.08;100.00;99873.75;1732210;81;20922;-63
2021/11/07 06:49:14;;;;;;;27.15;15.55;;;;;;;3.12;100.00;99877.81;1710429;82;21552;-63
2021/11/07 06:51:44;;;;;;;22.13;15.98;;;;;;;3.17;100.00;99871.45;1726386;81;21512;-63
2021/11/07 06:54:11;;;;;;;21.33;16.15;;;;;;;3.11;100.00;99866.03;1708650;82;20954;-63
2021/11/07 06:56:40;;;;;;;27.02;17.82;;;;;;;3.04;100.00;99864.94;1689313;82;21452;-63
2021/11/07 06:59:09;;;;;;;30.60;17.77;;;;;;;2.97;100.00;99860.34;1737962;82;20955;-63
2021/11/07 07:01:37;;;;;;;27.60;18.30;;;;;;;2.90;100.00;99850.95;1737784;81;20935;-63
2021/11/07 07:04:06;;;;;;;26.77;17.70;;;;;;;2.83;100.00;99851.11;1737871;81;21022;-63
2021/11/07 07:06:36;;;;;;;22.85;16.42;;;;;;;2.87;100.00;99840.42;1708810;82;21547;-63
2021/11/07 07:09:10;;;;;;;24.12;16.67;;;;;;;2.91;100.00;99843.60;1708657;82;21133;-63
2021/11/07 07:14:19;;;;;;;23.35;15.60;;;;;;;3.04;100.00;99828.45;1736857;81;20990;-63
2021/11/07 07:19:27;;;;;;;25.37;15.70;;;;;;;3.24;100.00;99832.14;1708347;82;21559;-63
2021/11/07 07:21:58;;;;;;;20.02;15.20;;;;;;;3.32;100.00;99830.30;1704586;84;22029;-62
2021/11/07 07:27:22;;;;;;;23.40;15.80;;;;;;;3.51;100.00;99823.96;1714710;82;21006;-62
2021/11/07 07:33:24;;;;;;;19.37;14.45;;;;;;;3.72;100.00;99837.69;1737766;82;21543;-62
2021/11/07 07:34:53;;;;;;;21.62;15.25;;;;;;;3.82;100.00;99838.02;1719208;82;21175;-63
2021/11/07 07:37:22;;;;;;;19.17;14.63;;;;;;;3.89;100.00;99830.42;1781945;79;20951;-62
2021/11/07 07:39:50;;;;;;;20.62;14.03;;;;;;;3.99;100.00;99812.02;1790763;79;20879;-62
2021/11/07 07:42:18;;;;;;;22.10;13.20;;;;;;;4.07;100.00;99806.19;1790488;80;20922;-62
2021/11/07 07:44:50;;;;;;;22.22;13.78;;;;;;;4.16;100.00;99797.74;1789290;80;21456;-61
2021/11/07 07:47:16;;;;;;;20.82;13.50;;;;;;;4.23;100.00;99793.16;1790197;79;21163;-61
2021/11/07 07:49:43;;;;;;;17.90;12.88;;;;;;;4.29;100.00;99793.38;1778230;79;20958;-63
2021/11/07 07:52:11;;;;;;;20.12;11.75;;;;;;;4.40;100.00;99788.03;1790478;80;20907;-63
2021/11/07 07:54:41;;;;;;;16.62;10.95;;;;;;;4.47;100.00;99772.53;1782130;80;20844;-62
2021/11/07 07:57:08;;;;;;;14.95;11.63;;;;;;;4.57;100.00;99775.45;1761740;80;20876;-62
2021/11/07 07:59:36;;;;;;;101.45;17.35;;;;;;;4.72;100.00;99765.83;1761712;80;21155;-62
2021/11/07 08:02:05;;;;;;;19.90;12.18;;;;;;;4.91;100.00;99769.42;1761872;80;20880;-62
2021/11/07 08:04:33;;;;;;;39.80;13.80;;;;;;;5.11;100.00;99768.62;1763313;80;20991;-63
2021/11/07 08:07:00;;;;;;;15.72;11.78;;;;;;;5.29;100.00;99771.73;1762265;80;20934;-63
2021/11/07 08:09:28;;;;;;;15.15;11.43;;;;;;;5.45;100.00;99770.80;1787867;80;20918;-63
2021/11/07 08:11:57;;;;;;;17.02;12.20;;;;;;;5.60;100.00;99758.08;1786683;79;21819;-63
2021/11/07 08:14:24;;;;;;;57.43;15.85;;;;;;;5.75;100.00;99770.66;1752651;81;20979;-63
2021/11/07 08:16:54;;;;;;;19.17;11.93;;;;;;;5.88;100.00;99770.09;1749919;81;21014;-65
2021/11/07 08:19:22;;;;;;;18.23;11.70;;;;;;;5.98;100.00;99767.73;1753291;81;20979;-63
2021/11/07 08:21:52;;;;;;;18.67;12.58;;;;;;;6.06;100.00;99762.66;1760071;81;21592;-63
2021/11/07 08:24:19;;;;;;;19.42;12.47;;;;;;;6.17;100.00;99765.55;1760000;81;21092;-63
2021/11/07 08:26:48;;;;;;;23.40;12.82;;;;;;;6.23;100.00;99758.70;1760486;81;20831;-63
2021/11/07 08:29:17;;;;;;;14.68;11.90;;;;;;;6.33;100.00;99749.72;1760751;81;20878;-63
2021/11/07 08:31:49;;;;;;;18.00;12.00;;;;;;;6.41;100.00;99742.47;1760593;81;20914;-63
2021/11/07 08:34:15;;;;;;;23.20;11.25;;;;;;;6.52;100.00;99739.63;1751784;81;20951;-64
2021/11/07 08:39:27;;;;;;;21.77;12.15;;;;;;;6.73;100.00;99744.42;1751754;81;20991;-63
2021/11/07 08:41:59;;;;;;;17.00;12.55;;;;;;;6.83;100.00;99741.54;1759640;81;20969;-62
2021/11/07 09:01:20;;;;;;;17.92;10.32;;;;;;;7.53;100.00;99702.05;1762384;81;21023;-63
2021/11/07 09:03:44;;;;;;;13.83;9.95;;;;;;;7.63;100.00;99698.73;1755378;81;21226;-62
2021/11/07 09:06:24;;;;;;;13.93;8.48;;;;;;;7.74;100.00;99690.58;1760844;81;21580;-62
2021/11/07 09:08:43;;;;;;;50.30;12.15;;;;;;;7.85;100.00;99688.09;1760895;81;20994;-63
2021/11/07 09:11:12;;;;;;;10.80;8.05;;;;;;;7.94;100.00;99686.90;1764054;81;21071;-62
2021/11/07 09:13:40;;;;;;;11.40;7.67;;;;;;;8.01;100.00;99672.09;1760118;81;21106;-61
2021/11/07 09:16:10;;;;;;;40.30;9.03;;;;;;;8.09;100.00;99672.67;1757708;81;21519;-63
2021/11/07 09:18:38;;;;;;;13.30;7.03;;;;;;;8.16;100.00;99664.43;1766966;81;21437;-62
2021/11/07 09:23:49;;;;;;;10.72;6.75;;;;;;;8.33;100.00;99647.53;1777954;80;20907;-63
2021/11/07 09:26:28;;;;;;;8.83;6.90;;;;;;;8.43;100.00;99638.91;1734109;81;20968;-63
2021/11/07 09:31:30;;;;;;;10.98;6.33;;;;;;;8.58;100.00;99634.27;1708051;80;21015;-63
2021/11/07 09:38:52;;;;;;;13.70;7.00;;;;;;;8.70;100.00;99603.70;1759640;80;21508;-64
2021/11/07 09:43:56;;;;;;;8.68;6.58;;;;;;;8.81;100.00;99606.41;1779776;79;20951;-66
2021/11/07 09:46:37;;;;;;;10.18;7.10;;;;;;;8.83;100.00;99583.63;1750913;81;21561;-64
2021/11/07 09:49:22;;;;;;;8.83;6.78;;;;;;;8.84;100.00;99567.86;1750060;80;21597;-62
2021/11/07 09:52:02;;;;;;;39.75;8.10;;;;;;;8.87;100.00;99570.06;1734581;81;20967;-62
2021/11/07 09:54:29;;;;;;;9.65;7.15;;;;;;;8.90;100.00;99562.20;1748809;82;21161;-63
2021/11/07 09:56:58;;;;;;;13.05;7.53;;;;;;;8.91;100.00;99551.68;1761900;80;20940;-64
2021/11/07 09:59:28;;;;;;;23.55;8.80;;;;;;;8.92;100.00;99558.70;1758922;81;20970;-60
2021/11/07 10:02:00;;;;;;;10.82;7.55;;;;;;;8.97;100.00;99549.09;1763260;81;20927;-62
2021/11/07 10:04:29;;;;;;;17.25;8.45;;;;;;;8.99;100.00;99550.02;1756711;81;20899;-63
2021/11/07 10:07:21;;;;;;;9.98;7.92;;;;;;;9.05;100.00;99550.48;1744579;81;21939;-62
2021/11/07 10:09:55;;;;;;;44.40;9.40;;;;;;;9.07;100.00;99535.59;1751130;81;20936;-64
2021/11/07 10:12:39;;;;;;;12.47;7.92;;;;;;;9.10;100.00;99535.17;1777838;79;20932;-62
2021/11/07 10:15:09;;;;;;;10.85;8.35;;;;;;;9.15;100.00;99524.23;1750020;81;21070;-62
2021/11/07 10:17:49;;;;;;;12.30;8.30;;;;;;;9.20;100.00;99511.53;1750121;80;20970;-62
2021/11/07 10:20:27;;;;;;;13.50;8.48;;;;;;;9.22;100.00;99500.58;1782286;80;21154;-62
2021/11/07 10:22:59;;;;;;;10.88;7.85;;;;;;;9.26;100.00;99499.28;1782078;80;20943;-63
2021/11/07 10:25:43;;;;;;;12.00;8.20;;;;;;;9.29;100.00;99501.92;1771326;80;21564;-64
2021/11/07 10:28:37;;;;;;;;;;;;;;;9.35;100.00;99506.34;1780090;80;21338;-62
2021/11/07 10:31:50;;;;;;;25.17;8.30;;;;;;;9.43;100.00;99498.03;1779671;80;20429;-63
2021/11/07 10:39:44;;;;;;;12.47;7.60;;;;;;;9.62;100.00;99489.80;1778027;80;21544;-63
2021/11/07 10:52:47;;;;;;;10.72;6.70;;;;;;;9.78;100.00;99442.41;1781267;80;20926;-62
2021/11/07 10:55:23;;;;;;;10.13;7.05;;;;;;;9.86;100.00;99420.03;1759079;80;21005;-63
2021/11/07 10:57:54;;;;;;;9.80;7.08;;;;;;;9.92;100.00;99413.44;1779053;80;21006;-63
2021/11/07 11:00:32;;;;;;;28.40;8.03;;;;;;;9.96;100.00;99420.51;1762524;81;21100;-64
2021/11/07 11:03:07;;;;;;;54.45;10.30;;;;;;;10.02;100.00;99420.51;1758310;81;21572;-62
2021/11/07 11:05:58;;;;;;;46.65;10.20;;;;;;;10.09;100.00;99426.22;1751783;81;21377;-62
2021/11/07 11:08:32;;;;;;;12.47;8.43;;;;;;;10.12;100.00;99419.19;1760034;81;21014;-62
2021/11/07 11:11:18;;;;;;;13.98;8.50;;;;;;;10.13;100.00;99415.23;1761011;81;21515;-62
2021/11/07 11:13:48;;;;;;;18.30;9.85;;;;;;;10.14;100.00;99419.63;1758168;81;21120;-63
2021/11/07 11:16:28;;;;;;;14.28;8.48;;;;;;;10.15;100.00;99403.38;1744877;82;21006;-63
2021/11/07 11:22:10;;;;;;;28.80;16.27;;;;;;;10.16;100.00;99386.67;1764116;80;21442;-63
2021/11/07 11:32:47;;;;;;;44.60;13.58;;;;;;;10.10;100.00;99381.84;1759516;81;20980;-60
2021/11/07 11:35:19;;;;;;;163.90;17.52;;;;;;;10.08;100.00;99377.45;1731961;82;21695;-60
2021/11/07 11:40:33;;;;;;;;;;;;;;;10.02;100.00;99357.25;1772981;80;21410;-60
2021/11/07 11:42:58;;;;;;;18.37;8.48;;;;;;;10.02;100.00;99353.30;1791993;80;20385;-61
2021/11/07 11:45:27;;;;;;;17.20;8.83;;;;;;;10.01;100.00;99351.55;1793011;80;20953;-65
2021/11/07 11:48:56;;;;;;;21.70;9.60;;;;;;;10.00;100.00;99338.37;1778427;80;20981;-64
2021/11/07 11:54:00;;;;;;;11.93;6.95;;;;;;;9.98;100.00;99305.88;1755868;80;21169;-63
2021/11/07 11:56:46;;;;;;;14.60;8.63;;;;;;;10.00;100.00;99310.70;1779923;80;21069;-62
2021/11/07 11:59:49;;;;;;;13.25;6.08;;;;;;;9.97;100.00;99307.63;1762754;80;21450;-63
2021/11/07 12:02:17;;;;;;;17.45;8.03;;;;;;;9.97;100.00;99304.12;1759846;81;21012;-63
2021/11/07 12:05:24;;;;;;;17.25;7.15;;;;;;;9.95;100.00;99311.14;1761499;81;21065;-64
2021/11/07 12:11:04;;;;;;;21.15;6.45;;;;;;;9.95;100.00;99306.75;1783889;80;20978;-63
2021/11/07 12:13:48;;;;;;;14.20;5.28;;;;;;;9.93;100.00;99303.24;1752783;81;21058;-63
2021/11/07 12:16:22;;;;;;;83.05;11.55;;;;;;;9.93;100.00;99299.70;1782075;80;20946;-62
2021/11/07 12:19:09;;;;;;;20.25;6.17;;;;;;;9.94;100.00;99294.90;1743250;81;20974;-62
2021/11/07 12:21:56;;;;;;;88.40;11.20;;;;;;;9.93;100.00;99295.34;1761941;80;21139;-63
2021/11/07 12:24:30;;;;;;;14.65;5.33;;;;;;;9.94;100.00;99293.14;1745776;82;21439;-64
2021/11/07 12:27:28;;;;;;;12.43;5.65;;;;;;;9.93;100.00;99287.84;1762011;80;20863;-66
2021/11/07 12:30:14;;;;;;;11.40;6.40;;;;;;;9.91;100.00;99280.38;1759232;80;21618;-65
2021/11/07 12:32:52;;;;;;;10.98;5.10;;;;;;;9.90;100.00;99267.64;1758936;80;21046;-65
2021/11/07 12:35:34;;;;;;;11.35;5.55;;;;;;;9.88;100.00;99269.41;1729216;81;21106;-61
2021/11/07 12:41:14;;;;;;;39.25;8.35;;;;;;;9.84;100.00;99265.02;1770946;81;21465;-66
2021/11/07 12:43:59;;;;;;;12.18;5.70;;;;;;;9.79;100.00;99252.30;1755644;81;20962;-68
2021/11/07 12:47:00;;;;;;;13.53;5.92;;;;;;;9.75;100.00;99249.23;1762039;81;21014;-69
2021/11/07 12:49:28;;;;;;;;;;;;;;;9.71;100.00;99232.55;1762862;81;21222;-68
2021/11/07 12:52:14;;;;;;;42.05;7.25;;;;;;;9.69;100.00;99233.43;1761964;81;20436;-67
2021/11/07 12:54:42;;;;;;;45.58;8.40;;;;;;;9.66;100.00;99238.70;1758691;81;21078;-67
2021/11/07 12:57:12;;;;;;;14.80;6.53;;;;;;;9.66;100.00;99249.23;1759518;81;20972;-67
2021/11/07 12:59:46;;;;;;;57.62;7.25;;;;;;;9.64;100.00;99240.46;1764973;80;20938;-68
2021/11/07 13:02:32;;;;;;;24.15;6.45;;;;;;;9.64;100.00;99227.29;1762704;81;21496;-68
2021/11/07 13:05:37;;;;;;;28.77;7.47;;;;;;;9.63;100.00;99219.83;1759498;81;21454;-68
2021/11/07 13:07:55;;;;;;;13.25;6.30;;;;;;;9.61;100.00;99212.81;1744818;81;21483;-69
2021/11/07 13:10:39;;;;;;;9.50;5.28;;;;;;;9.58;100.00;99213.69;1757446;80;21638;-69
2021/11/07 13:13:06;;;;;;;15.35;6.15;;;;;;;9.56;100.00;99202.72;1759322;81;21063;-69
2021/11/07 13:18:30;;;;;;;27.85;6.60;;;;;;;9.51;100.00;99205.36;1783842;80;20867;-68
2021/11/07 13:21:27;;;;;;;9.10;5.10;;;;;;;9.49;100.00;99207.56;1752131;81;21508;-68
2021/11/07 13:29:30;;;;;;;9.13;5.10;;;;;;;9.49;100.00;99246.62;1781105;80;22145;-69
2021/11/07 13:32:13;;;;;;;10.90;6.53;;;;;;;9.46;100.00;99246.17;1751767;81;21079;-69
2021/11/07 13:34:31;;;;;;;9.43;6.50;;;;;;;9.42;100.00;99243.08;1747135;81;20968;-69